KC7FQC Weather Reports


Display with metric or nautical units.
time (UTC)temp
F
wind
direction
speed
MPH
gust
MPH
rain 1hr
in
rain 24hr
in
rain mn
in
humidity
%
barometer
mb
20180721170031 86 320 9.0 12.0 0.00 0.00 0.00 57 1015.7
20180721163030 84 248 9.0 11.0 0.00 0.00 0.00 61 1016.0
20180721160030 80 202 5.0 13.0 0.00 0.00 0.00 69 1015.8
20180721153030 80 27 9.0 20.0 0.00 0.00 0.00 69 1014.4
20180721150030 79 239 2.0 10.0 0.00 0.00 0.00 72 1015.6
20180721143030 78 248 8.0 18.0 0.00 0.00 0.00 71 1014.9
20180721140040 80 218 6.0 18.0 0.00 0.00 0.00 75 1014.1
20180721133040 82 223 11.0 22.0 0.00 0.00 0.00 68 1013.1
20180721130040 85 236 9.0 16.0 0.00 0.00 0.00 57 1012.6
20180721123040 90 205 9.0 15.0 0.00 0.00 0.00 48 1012.6
20180721120040 92 165 8.0 23.0 0.00 0.00 0.00 43 1011.9
20180721113040 93 166 8.0 11.0 0.00 0.00 0.00 35 1011.5
20180721110040 94 205 7.0 9.0 0.00 0.00 0.00 34 1010.3
20180721103055 94 236 7.0 10.0 0.00 0.00 0.00 35 1010.1
20180721100040 94 239 5.0 9.0 0.00 0.00 0.00 35 1010.1
20180721093055 95 231 7.0 9.0 0.00 0.00 0.00 35 1010.4
20180721090040 95 219 1.0 12.0 0.00 0.00 0.00 35 1010.3
20180721083040 96 204 8.0 14.0 0.00 0.00 0.00 35 1010.4
20180721080040 96 217 6.0 12.0 0.00 0.00 0.00 36 1010.2
20180721073055 97 211 8.0 11.0 0.00 0.00 0.00 35 1009.9
20180721070040 98 223 6.0 10.0 0.00 0.00 0.00 35 1009.9
20180721063055 99 212 5.0 10.0 0.00 0.00 0.00 35 1009.9
20180721060039 99 221 2.0 7.0 0.00 0.00 0.00 34 1009.8
20180721053039 99 221 5.0 9.0 0.00 0.00 0.00 34 1009.7
20180721050039 100 213 3.0 5.0 0.00 0.00 0.00 34 1009.7
20180721043055 101 213 0.0 9.0 0.00 0.00 0.00 33 1009.7
20180721040109 101 217 4.0 9.0 0.00 0.00 0.00 32 1009.0
20180721033039 102 213 5.0 8.0 0.00 0.00 0.00 31 1008.7
20180721030054 103 219 5.0 12.0 0.00 0.00 0.00 31 1008.3
20180721023039 103 219 5.0 13.0 0.00 0.00 0.00 30 1007.4
20180721020039 104 222 10.0 15.0 0.00 0.00 0.00 30 1007.9
20180721013039 105 221 11.0 15.0 0.00 0.00 0.00 29 1007.7
20180721010039 105 220 10.0 16.0 0.00 0.00 0.00 29 1007.8
20180721003038 106 223 9.0 18.0 0.00 0.00 0.00 29 1007.6
20180721000038 106 209 14.0 20.0 0.00 0.00 0.00 28 1007.5
20180720233038 107 215 13.0 19.0 0.00 0.00 0.00 28 1007.5
20180720230038 109 200 8.0 22.0 0.00 0.00 0.00 28 1008.0
20180720223038 110 213 7.0 20.0 0.00 0.00 0.00 27 1008.6
20180720220038 111 211 13.0 14.0 0.00 0.00 0.00 27 1008.8
20180720213038 111 227 7.0 13.0 0.00 0.00 0.00 28 1009.4
20180720210038 110 229 2.0 14.0 0.00 0.00 0.00 27 1009.9
20180720203038 110 277 4.0 13.0 0.00 0.00 0.00 28 1010.5
20180720200038 107 239 8.0 14.0 0.00 0.00 0.00 30 1010.8
20180720193038 108 231 7.0 11.0 0.00 0.00 0.00 30 1011.3
20180720190038 107 234 6.0 11.0 0.00 0.00 0.00 30 1011.5
20180720183038 106 247 5.0 12.0 0.00 0.00 0.00 31 1012.1
20180720180038 105 193 4.0 10.0 0.00 0.00 0.00 31 1012.1
20180720173037 104 225 1.0 11.0 0.00 0.00 0.00 32 1012.4